sensor_id;sensor_type;location;lat;lon;timestamp;P1;durP1;ratioP1;P2;durP2;ratioP2
7338;SDS011;33747;49.524;8.390;2022-09-29T00:01:22;10.88;;;3.28;;
7338;SDS011;33747;49.524;8.390;2022-09-29T00:03:47;6.07;;;2.60;;
7338;SDS011;33747;49.524;8.390;2022-09-29T00:06:14;4.05;;;2.28;;
7338;SDS011;33747;49.524;8.390;2022-09-29T00:08:40;5.35;;;3.30;;
7338;SDS011;33747;49.524;8.390;2022-09-29T00:11:07;4.93;;;3.63;;
7338;SDS011;33747;49.524;8.390;2022-09-29T00:13:33;7.13;;;3.20;;
7338;SDS011;33747;49.524;8.390;2022-09-29T00:15:59;8.00;;;3.15;;
7338;SDS011;33747;49.524;8.390;2022-09-29T00:18:26;6.03;;;3.28;;
7338;SDS011;33747;49.524;8.390;2022-09-29T00:21:02;5.28;;;3.38;;
7338;SDS011;33747;49.524;8.390;2022-09-29T00:23:46;9.68;;;4.10;;
7338;SDS011;33747;49.524;8.390;2022-09-29T00:26:22;11.88;;;4.72;;
7338;SDS011;33747;49.524;8.390;2022-09-29T00:31:16;7.32;;;4.00;;
7338;SDS011;33747;49.524;8.390;2022-09-29T00:33:42;8.88;;;4.72;;
7338;SDS011;33747;49.524;8.390;2022-09-29T00:36:11;13.25;;;4.72;;
7338;SDS011;33747;49.524;8.390;2022-09-29T00:38:38;7.55;;;5.20;;
7338;SDS011;33747;49.524;8.390;2022-09-29T00:41:04;8.90;;;4.95;;
7338;SDS011;33747;49.524;8.390;2022-09-29T00:46:28;11.02;;;5.75;;
7338;SDS011;33747;49.524;8.390;2022-09-29T00:48:55;11.10;;;6.85;;
7338;SDS011;33747;49.524;8.390;2022-09-29T00:51:24;9.32;;;5.68;;
7338;SDS011;33747;49.524;8.390;2022-09-29T00:53:50;15.88;;;7.97;;
7338;SDS011;33747;49.524;8.390;2022-09-29T00:56:16;17.27;;;8.20;;
7338;SDS011;33747;49.524;8.390;2022-09-29T00:58:43;13.02;;;9.13;;
7338;SDS011;33747;49.524;8.390;2022-09-29T01:01:18;17.92;;;10.45;;
7338;SDS011;33747;49.524;8.390;2022-09-29T01:03:44;15.95;;;9.70;;
7338;SDS011;33747;49.524;8.390;2022-09-29T01:06:14;17.20;;;10.13;;
7338;SDS011;33747;49.524;8.390;2022-09-29T01:11:16;14.10;;;10.30;;
7338;SDS011;33747;49.524;8.390;2022-09-29T01:13:42;18.48;;;10.85;;
7338;SDS011;33747;49.524;8.390;2022-09-29T01:16:08;17.63;;;10.90;;
7338;SDS011;33747;49.524;8.390;2022-09-29T01:18:34;24.48;;;11.77;;
7338;SDS011;33747;49.524;8.390;2022-09-29T01:27:04;29.25;;;12.80;;
7338;SDS011;33747;49.524;8.390;2022-09-29T01:29:49;18.25;;;12.27;;
7338;SDS011;33747;49.524;8.390;2022-09-29T01:32:30;23.77;;;12.13;;
7338;SDS011;33747;49.524;8.390;2022-09-29T01:35:21;25.60;;;14.30;;
7338;SDS011;33747;49.524;8.390;2022-09-29T01:40:34;24.45;;;13.30;;
7338;SDS011;33747;49.524;8.390;2022-09-29T01:43:15;22.58;;;12.20;;
7338;SDS011;33747;49.524;8.390;2022-09-29T01:46:19;22.48;;;12.23;;
7338;SDS011;33747;49.524;8.390;2022-09-29T01:48:38;30.67;;;11.02;;
7338;SDS011;33747;49.524;8.390;2022-09-29T01:51:08;25.38;;;10.25;;
7338;SDS011;33747;49.524;8.390;2022-09-29T01:53:38;20.92;;;9.80;;
7338;SDS011;33747;49.524;8.390;2022-09-29T01:56:08;14.18;;;10.18;;
7338;SDS011;33747;49.524;8.390;2022-09-29T01:58:41;20.63;;;8.95;;
7338;SDS011;33747;49.524;8.390;2022-09-29T02:01:11;25.55;;;8.95;;
7338;SDS011;33747;49.524;8.390;2022-09-29T02:03:51;16.80;;;9.63;;
7338;SDS011;33747;49.524;8.390;2022-09-29T02:06:20;14.48;;;9.82;;
7338;SDS011;33747;49.524;8.390;2022-09-29T02:08:53;19.75;;;10.38;;
7338;SDS011;33747;49.524;8.390;2022-09-29T02:11:19;30.88;;;10.50;;
7338;SDS011;33747;49.524;8.390;2022-09-29T02:13:48;25.67;;;10.02;;
7338;SDS011;33747;49.524;8.390;2022-09-29T02:16:15;14.90;;;10.68;;
7338;SDS011;33747;49.524;8.390;2022-09-29T02:18:51;21.90;;;10.32;;
7338;SDS011;33747;49.524;8.390;2022-09-29T02:21:18;14.75;;;10.65;;
7338;SDS011;33747;49.524;8.390;2022-09-29T02:23:43;16.80;;;10.85;;
7338;SDS011;33747;49.524;8.390;2022-09-29T02:26:09;20.13;;;10.73;;
7338;SDS011;33747;49.524;8.390;2022-09-29T02:28:35;16.60;;;11.75;;
7338;SDS011;33747;49.524;8.390;2022-09-29T02:31:01;17.13;;;12.82;;
7338;SDS011;33747;49.524;8.390;2022-09-29T02:33:26;18.27;;;12.30;;
7338;SDS011;33747;49.524;8.390;2022-09-29T02:38:32;21.35;;;13.65;;
7338;SDS011;33747;49.524;8.390;2022-09-29T02:46:56;27.45;;;14.20;;
7338;SDS011;33747;49.524;8.390;2022-09-29T02:49:27;27.75;;;15.32;;
7338;SDS011;33747;49.524;8.390;2022-09-29T02:51:56;27.50;;;16.27;;
7338;SDS011;33747;49.524;8.390;2022-09-29T02:57:14;21.67;;;14.70;;
7338;SDS011;33747;49.524;8.390;2022-09-29T03:02:21;24.35;;;16.13;;
7338;SDS011;33747;49.524;8.390;2022-09-29T03:04:48;26.63;;;15.68;;
7338;SDS011;33747;49.524;8.390;2022-09-29T03:07:13;26.83;;;15.70;;
7338;SDS011;33747;49.524;8.390;2022-09-29T03:09:39;21.88;;;15.13;;
7338;SDS011;33747;49.524;8.390;2022-09-29T03:12:04;22.92;;;14.88;;
7338;SDS011;33747;49.524;8.390;2022-09-29T03:14:29;19.88;;;14.10;;
7338;SDS011;33747;49.524;8.390;2022-09-29T03:16:55;19.08;;;13.45;;
7338;SDS011;33747;49.524;8.390;2022-09-29T03:19:20;21.42;;;13.60;;
7338;SDS011;33747;49.524;8.390;2022-09-29T03:21:45;18.27;;;14.00;;
7338;SDS011;33747;49.524;8.390;2022-09-29T03:24:10;18.30;;;13.25;;
7338;SDS011;33747;49.524;8.390;2022-09-29T03:26:36;19.95;;;13.32;;
7338;SDS011;33747;49.524;8.390;2022-09-29T03:29:01;17.17;;;12.50;;
7338;SDS011;33747;49.524;8.390;2022-09-29T03:31:27;20.15;;;14.07;;
7338;SDS011;33747;49.524;8.390;2022-09-29T03:33:52;16.95;;;11.98;;
7338;SDS011;33747;49.524;8.390;2022-09-29T03:36:17;20.75;;;13.70;;
7338;SDS011;33747;49.524;8.390;2022-09-29T03:38:43;19.73;;;13.70;;
7338;SDS011;33747;49.524;8.390;2022-09-29T03:41:09;22.00;;;14.38;;
7338;SDS011;33747;49.524;8.390;2022-09-29T03:43:34;22.40;;;13.93;;
7338;SDS011;33747;49.524;8.390;2022-09-29T03:46:00;19.08;;;13.65;;
7338;SDS011;33747;49.524;8.390;2022-09-29T03:48:25;21.80;;;14.82;;
7338;SDS011;33747;49.524;8.390;2022-09-29T03:50:55;20.92;;;14.70;;
7338;SDS011;33747;49.524;8.390;2022-09-29T03:53:20;20.75;;;14.52;;
7338;SDS011;33747;49.524;8.390;2022-09-29T03:55:46;23.02;;;15.93;;
7338;SDS011;33747;49.524;8.390;2022-09-29T03:58:13;20.80;;;14.10;;
7338;SDS011;33747;49.524;8.390;2022-09-29T04:00:38;16.50;;;13.13;;
7338;SDS011;33747;49.524;8.390;2022-09-29T04:03:04;18.85;;;13.63;;
7338;SDS011;33747;49.524;8.390;2022-09-29T04:05:29;29.73;;;14.80;;
7338;SDS011;33747;49.524;8.390;2022-09-29T04:07:54;18.85;;;13.23;;
7338;SDS011;33747;49.524;8.390;2022-09-29T04:10:20;20.05;;;14.40;;
7338;SDS011;33747;49.524;8.390;2022-09-29T04:12:45;21.83;;;14.27;;
7338;SDS011;33747;49.524;8.390;2022-09-29T04:15:10;18.13;;;13.65;;
7338;SDS011;33747;49.524;8.390;2022-09-29T04:17:36;18.98;;;12.95;;
7338;SDS011;33747;49.524;8.390;2022-09-29T04:20:01;24.92;;;13.43;;
7338;SDS011;33747;49.524;8.390;2022-09-29T04:22:26;19.30;;;14.55;;
7338;SDS011;33747;49.524;8.390;2022-09-29T04:24:51;25.08;;;14.77;;
7338;SDS011;33747;49.524;8.390;2022-09-29T04:27:17;24.38;;;15.02;;
7338;SDS011;33747;49.524;8.390;2022-09-29T04:29:43;31.77;;;14.93;;
7338;SDS011;33747;49.524;8.390;2022-09-29T04:32:08;25.30;;;14.63;;
7338;SDS011;33747;49.524;8.390;2022-09-29T04:34:34;24.90;;;15.25;;
7338;SDS011;33747;49.524;8.390;2022-09-29T04:36:59;31.85;;;16.35;;
7338;SDS011;33747;49.524;8.390;2022-09-29T04:39:25;31.08;;;16.02;;
7338;SDS011;33747;49.524;8.390;2022-09-29T04:41:51;26.20;;;14.88;;
7338;SDS011;33747;49.524;8.390;2022-09-29T04:44:16;25.83;;;16.50;;
7338;SDS011;33747;49.524;8.390;2022-09-29T04:46:44;30.00;;;17.25;;
7338;SDS011;33747;49.524;8.390;2022-09-29T04:49:09;36.15;;;17.08;;
7338;SDS011;33747;49.524;8.390;2022-09-29T04:51:34;30.05;;;17.23;;
7338;SDS011;33747;49.524;8.390;2022-09-29T04:54:00;37.55;;;19.30;;
7338;SDS011;33747;49.524;8.390;2022-09-29T04:56:26;35.30;;;19.67;;
7338;SDS011;33747;49.524;8.390;2022-09-29T04:58:55;28.67;;;16.33;;
7338;SDS011;33747;49.524;8.390;2022-09-29T05:01:21;32.03;;;17.25;;
7338;SDS011;33747;49.524;8.390;2022-09-29T05:03:46;39.83;;;18.25;;
7338;SDS011;33747;49.524;8.390;2022-09-29T05:06:11;32.85;;;17.90;;
7338;SDS011;33747;49.524;8.390;2022-09-29T05:08:37;28.55;;;17.13;;
7338;SDS011;33747;49.524;8.390;2022-09-29T05:11:03;31.88;;;17.15;;
7338;SDS011;33747;49.524;8.390;2022-09-29T05:13:32;33.33;;;17.10;;
7338;SDS011;33747;49.524;8.390;2022-09-29T05:15:57;26.80;;;16.02;;
7338;SDS011;33747;49.524;8.390;2022-09-29T05:18:23;25.02;;;15.25;;
7338;SDS011;33747;49.524;8.390;2022-09-29T05:20:49;25.17;;;14.55;;
7338;SDS011;33747;49.524;8.390;2022-09-29T05:23:14;28.38;;;15.90;;
7338;SDS011;33747;49.524;8.390;2022-09-29T05:25:40;28.70;;;17.08;;
7338;SDS011;33747;49.524;8.390;2022-09-29T05:28:05;34.08;;;17.77;;
7338;SDS011;33747;49.524;8.390;2022-09-29T05:30:30;27.95;;;14.90;;
7338;SDS011;33747;49.524;8.390;2022-09-29T05:32:56;24.67;;;14.98;;
7338;SDS011;33747;49.524;8.390;2022-09-29T05:35:21;24.35;;;15.20;;
7338;SDS011;33747;49.524;8.390;2022-09-29T05:37:46;21.08;;;14.60;;
7338;SDS011;33747;49.524;8.390;2022-09-29T05:40:12;25.35;;;13.65;;
7338;SDS011;33747;49.524;8.390;2022-09-29T05:42:37;21.40;;;13.05;;
7338;SDS011;33747;49.524;8.390;2022-09-29T05:45:04;21.00;;;12.65;;
7338;SDS011;33747;49.524;8.390;2022-09-29T05:47:30;23.63;;;12.75;;
7338;SDS011;33747;49.524;8.390;2022-09-29T05:49:56;21.63;;;13.70;;
7338;SDS011;33747;49.524;8.390;2022-09-29T05:52:21;20.35;;;12.60;;
7338;SDS011;33747;49.524;8.390;2022-09-29T05:54:46;18.08;;;13.30;;
7338;SDS011;33747;49.524;8.390;2022-09-29T05:57:15;25.23;;;13.23;;
7338;SDS011;33747;49.524;8.390;2022-09-29T05:59:40;20.92;;;12.60;;
7338;SDS011;33747;49.524;8.390;2022-09-29T06:02:05;20.85;;;13.32;;
7338;SDS011;33747;49.524;8.390;2022-09-29T06:04:31;19.67;;;12.52;;
7338;SDS011;33747;49.524;8.390;2022-09-29T06:06:57;19.80;;;12.25;;
7338;SDS011;33747;49.524;8.390;2022-09-29T06:09:22;23.10;;;13.05;;
7338;SDS011;33747;49.524;8.390;2022-09-29T06:11:48;21.45;;;13.23;;
7338;SDS011;33747;49.524;8.390;2022-09-29T06:14:13;24.67;;;14.23;;
7338;SDS011;33747;49.524;8.390;2022-09-29T06:16:38;26.30;;;12.23;;
7338;SDS011;33747;49.524;8.390;2022-09-29T06:19:05;21.55;;;13.65;;
7338;SDS011;33747;49.524;8.390;2022-09-29T06:21:30;21.05;;;13.05;;
7338;SDS011;33747;49.524;8.390;2022-09-29T06:23:59;20.23;;;12.38;;
7338;SDS011;33747;49.524;8.390;2022-09-29T06:26:25;26.83;;;14.35;;
7338;SDS011;33747;49.524;8.390;2022-09-29T06:28:51;28.10;;;14.68;;
7338;SDS011;33747;49.524;8.390;2022-09-29T06:31:18;24.58;;;14.98;;
7338;SDS011;33747;49.524;8.390;2022-09-29T06:33:45;24.25;;;14.60;;
7338;SDS011;33747;49.524;8.390;2022-09-29T06:36:21;24.08;;;14.55;;
7338;SDS011;33747;49.524;8.390;2022-09-29T06:39:07;24.55;;;15.48;;
7338;SDS011;33747;49.524;8.390;2022-09-29T06:41:35;24.17;;;16.38;;
7338;SDS011;33747;49.524;8.390;2022-09-29T06:44:00;30.48;;;18.10;;
7338;SDS011;33747;49.524;8.390;2022-09-29T06:46:26;27.38;;;17.83;;
7338;SDS011;33747;49.524;8.390;2022-09-29T06:48:52;24.55;;;17.75;;
7338;SDS011;33747;49.524;8.390;2022-09-29T06:51:18;26.83;;;17.83;;
7338;SDS011;33747;49.524;8.390;2022-09-29T06:53:46;27.10;;;17.58;;
7338;SDS011;33747;49.524;8.390;2022-09-29T06:56:11;25.58;;;16.63;;
7338;SDS011;33747;49.524;8.390;2022-09-29T06:58:36;28.35;;;18.63;;
7338;SDS011;33747;49.524;8.390;2022-09-29T07:01:02;25.02;;;18.13;;
7338;SDS011;33747;49.524;8.390;2022-09-29T07:03:29;29.08;;;18.50;;
7338;SDS011;33747;49.524;8.390;2022-09-29T07:05:55;37.25;;;19.45;;
7338;SDS011;33747;49.524;8.390;2022-09-29T07:08:21;28.52;;;17.50;;
7338;SDS011;33747;49.524;8.390;2022-09-29T07:10:46;26.63;;;15.57;;
7338;SDS011;33747;49.524;8.390;2022-09-29T07:13:12;34.83;;;17.50;;
7338;SDS011;33747;49.524;8.390;2022-09-29T07:15:37;29.52;;;17.48;;
7338;SDS011;33747;49.524;8.390;2022-09-29T07:18:03;24.55;;;16.88;;
7338;SDS011;33747;49.524;8.390;2022-09-29T07:20:28;23.15;;;14.93;;
7338;SDS011;33747;49.524;8.390;2022-09-29T07:22:55;36.22;;;15.07;;
7338;SDS011;33747;49.524;8.390;2022-09-29T07:25:21;25.58;;;16.42;;
7338;SDS011;33747;49.524;8.390;2022-09-29T07:27:47;22.30;;;15.35;;
7338;SDS011;33747;49.524;8.390;2022-09-29T07:30:13;28.40;;;15.65;;
7338;SDS011;33747;49.524;8.390;2022-09-29T07:32:39;24.05;;;15.65;;
7338;SDS011;33747;49.524;8.390;2022-09-29T07:35:04;25.95;;;15.93;;
7338;SDS011;33747;49.524;8.390;2022-09-29T07:37:30;27.92;;;16.25;;
7338;SDS011;33747;49.524;8.390;2022-09-29T07:39:56;32.50;;;17.45;;
7338;SDS011;33747;49.524;8.390;2022-09-29T07:42:21;27.92;;;17.58;;
7338;SDS011;33747;49.524;8.390;2022-09-29T07:44:46;27.30;;;18.45;;
7338;SDS011;33747;49.524;8.390;2022-09-29T07:47:12;33.38;;;18.90;;
7338;SDS011;33747;49.524;8.390;2022-09-29T07:49:39;30.77;;;18.25;;
7338;SDS011;33747;49.524;8.390;2022-09-29T07:52:07;34.90;;;20.33;;
7338;SDS011;33747;49.524;8.390;2022-09-29T07:54:32;30.20;;;20.73;;
7338;SDS011;33747;49.524;8.390;2022-09-29T07:56:58;28.98;;;19.90;;
7338;SDS011;33747;49.524;8.390;2022-09-29T07:59:25;32.13;;;20.88;;
7338;SDS011;33747;49.524;8.390;2022-09-29T08:01:51;34.88;;;22.10;;
7338;SDS011;33747;49.524;8.390;2022-09-29T08:04:16;31.38;;;20.75;;
7338;SDS011;33747;49.524;8.390;2022-09-29T08:06:41;34.83;;;22.17;;
7338;SDS011;33747;49.524;8.390;2022-09-29T08:09:07;31.88;;;22.20;;
7338;SDS011;33747;49.524;8.390;2022-09-29T08:11:35;33.38;;;21.42;;
7338;SDS011;33747;49.524;8.390;2022-09-29T08:14:02;36.22;;;22.27;;
7338;SDS011;33747;49.524;8.390;2022-09-29T08:16:27;32.35;;;21.00;;
7338;SDS011;33747;49.524;8.390;2022-09-29T08:18:53;42.72;;;23.25;;
7338;SDS011;33747;49.524;8.390;2022-09-29T08:21:18;32.58;;;20.65;;
7338;SDS011;33747;49.524;8.390;2022-09-29T08:23:43;32.45;;;21.80;;
7338;SDS011;33747;49.524;8.390;2022-09-29T08:26:11;38.83;;;22.23;;
7338;SDS011;33747;49.524;8.390;2022-09-29T08:28:38;39.25;;;21.88;;
7338;SDS011;33747;49.524;8.390;2022-09-29T08:31:08;33.63;;;21.80;;
7338;SDS011;33747;49.524;8.390;2022-09-29T08:33:35;33.75;;;21.63;;
7338;SDS011;33747;49.524;8.390;2022-09-29T08:36:01;37.65;;;22.13;;
7338;SDS011;33747;49.524;8.390;2022-09-29T08:38:29;34.17;;;22.42;;
7338;SDS011;33747;49.524;8.390;2022-09-29T08:40:55;35.80;;;22.00;;
7338;SDS011;33747;49.524;8.390;2022-09-29T08:46:03;31.75;;;21.38;;
7338;SDS011;33747;49.524;8.390;2022-09-29T08:48:32;31.98;;;20.73;;
7338;SDS011;33747;49.524;8.390;2022-09-29T08:51:20;34.67;;;22.33;;
7338;SDS011;33747;49.524;8.390;2022-09-29T08:53:51;36.97;;;21.70;;
7338;SDS011;33747;49.524;8.390;2022-09-29T08:56:18;33.83;;;20.90;;
7338;SDS011;33747;49.524;8.390;2022-09-29T08:58:43;34.50;;;21.70;;
7338;SDS011;33747;49.524;8.390;2022-09-29T09:01:20;33.55;;;21.85;;
7338;SDS011;33747;49.524;8.390;2022-09-29T09:04:44;29.88;;;21.10;;
7338;SDS011;33747;49.524;8.390;2022-09-29T09:07:14;31.23;;;21.75;;
7338;SDS011;33747;49.524;8.390;2022-09-29T09:18:29;32.92;;;19.33;;
7338;SDS011;33747;49.524;8.390;2022-09-29T09:21:07;29.15;;;19.33;;
7338;SDS011;33747;49.524;8.390;2022-09-29T09:26:41;25.25;;;17.17;;
7338;SDS011;33747;49.524;8.390;2022-09-29T09:29:12;24.25;;;16.33;;
7338;SDS011;33747;49.524;8.390;2022-09-29T09:31:50;29.15;;;17.25;;
7338;SDS011;33747;49.524;8.390;2022-09-29T09:39:29;21.52;;;14.98;;
7338;SDS011;33747;49.524;8.390;2022-09-29T09:41:57;24.05;;;14.77;;
7338;SDS011;33747;49.524;8.390;2022-09-29T09:44:24;21.35;;;15.20;;
7338;SDS011;33747;49.524;8.390;2022-09-29T09:46:55;19.52;;;14.35;;
7338;SDS011;33747;49.524;8.390;2022-09-29T09:49:24;19.10;;;14.15;;
7338;SDS011;33747;49.524;8.390;2022-09-29T09:52:13;18.73;;;13.50;;
7338;SDS011;33747;49.524;8.390;2022-09-29T09:54:46;17.92;;;13.25;;
7338;SDS011;33747;49.524;8.390;2022-09-29T10:03:08;16.70;;;12.68;;
7338;SDS011;33747;49.524;8.390;2022-09-29T10:05:34;18.50;;;12.57;;
7338;SDS011;33747;49.524;8.390;2022-09-29T10:08:03;22.77;;;14.25;;
7338;SDS011;33747;49.524;8.390;2022-09-29T10:10:30;17.88;;;13.43;;
7338;SDS011;33747;49.524;8.390;2022-09-29T10:18:04;21.60;;;13.13;;
7338;SDS011;33747;49.524;8.390;2022-09-29T10:20:35;19.10;;;12.57;;
7338;SDS011;33747;49.524;8.390;2022-09-29T10:29:02;17.52;;;13.63;;
7338;SDS011;33747;49.524;8.390;2022-09-29T10:31:56;21.52;;;12.93;;
7338;SDS011;33747;49.524;8.390;2022-09-29T10:34:46;19.70;;;12.73;;
7338;SDS011;33747;49.524;8.390;2022-09-29T10:37:30;20.05;;;11.93;;
7338;SDS011;33747;49.524;8.390;2022-09-29T10:42:38;21.33;;;12.98;;
7338;SDS011;33747;49.524;8.390;2022-09-29T10:45:18;18.42;;;12.32;;
7338;SDS011;33747;49.524;8.390;2022-09-29T10:48:06;17.67;;;12.15;;
7338;SDS011;33747;49.524;8.390;2022-09-29T10:50:34;14.98;;;11.27;;
7338;SDS011;33747;49.524;8.390;2022-09-29T10:53:03;23.90;;;12.32;;
7338;SDS011;33747;49.524;8.390;2022-09-29T10:55:34;18.75;;;12.88;;
7338;SDS011;33747;49.524;8.390;2022-09-29T10:58:23;27.20;;;11.90;;
7338;SDS011;33747;49.524;8.390;2022-09-29T11:01:01;15.55;;;11.93;;
7338;SDS011;33747;49.524;8.390;2022-09-29T11:03:31;27.88;;;11.82;;
7338;SDS011;33747;49.524;8.390;2022-09-29T11:05:58;20.77;;;12.10;;
7338;SDS011;33747;49.524;8.390;2022-09-29T11:08:26;15.13;;;10.07;;
7338;SDS011;33747;49.524;8.390;2022-09-29T11:11:03;16.13;;;11.10;;
7338;SDS011;33747;49.524;8.390;2022-09-29T11:13:34;16.95;;;10.07;;
7338;SDS011;33747;49.524;8.390;2022-09-29T11:16:24;13.35;;;9.48;;
7338;SDS011;33747;49.524;8.390;2022-09-29T11:18:51;17.92;;;9.52;;
7338;SDS011;33747;49.524;8.390;2022-09-29T11:24:15;14.38;;;8.30;;
7338;SDS011;33747;49.524;8.390;2022-09-29T11:27:06;11.55;;;6.88;;
7338;SDS011;33747;49.524;8.390;2022-09-29T11:35:17;10.45;;;4.80;;
7338;SDS011;33747;49.524;8.390;2022-09-29T11:40:19;5.22;;;3.03;;
7338;SDS011;33747;49.524;8.390;2022-09-29T11:45:32;9.07;;;5.00;;
7338;SDS011;33747;49.524;8.390;2022-09-29T11:50:48;9.73;;;5.50;;
7338;SDS011;33747;49.524;8.390;2022-09-29T11:56:11;6.88;;;4.93;;
7338;SDS011;33747;49.524;8.390;2022-09-29T12:01:35;10.20;;;6.05;;
7338;SDS011;33747;49.524;8.390;2022-09-29T12:06:59;10.13;;;5.75;;
7338;SDS011;33747;49.524;8.390;2022-09-29T12:09:57;9.27;;;5.00;;
7338;SDS011;33747;49.524;8.390;2022-09-29T12:12:47;9.48;;;5.25;;
7338;SDS011;33747;49.524;8.390;2022-09-29T12:15:56;12.95;;;5.28;;
7338;SDS011;33747;49.524;8.390;2022-09-29T12:18:24;11.40;;;4.53;;
7338;SDS011;33747;49.524;8.390;2022-09-29T12:20:53;7.38;;;5.40;;
7338;SDS011;33747;49.524;8.390;2022-09-29T12:23:20;9.90;;;5.50;;
7338;SDS011;33747;49.524;8.390;2022-09-29T12:25:58;5.93;;;5.10;;
7338;SDS011;33747;49.524;8.390;2022-09-29T12:31:24;8.05;;;5.15;;
7338;SDS011;33747;49.524;8.390;2022-09-29T12:37:00;13.65;;;6.28;;
7338;SDS011;33747;49.524;8.390;2022-09-29T12:44:42;10.25;;;6.30;;
7338;SDS011;33747;49.524;8.390;2022-09-29T12:47:12;14.68;;;6.18;;
7338;SDS011;33747;49.524;8.390;2022-09-29T12:52:51;15.75;;;5.93;;
7338;SDS011;33747;49.524;8.390;2022-09-29T12:55:27;9.30;;;4.75;;
7338;SDS011;33747;49.524;8.390;2022-09-29T12:58:09;9.63;;;5.38;;
7338;SDS011;33747;49.524;8.390;2022-09-29T13:00:38;14.20;;;5.38;;
7338;SDS011;33747;49.524;8.390;2022-09-29T13:03:18;12.65;;;5.53;;
7338;SDS011;33747;49.524;8.390;2022-09-29T13:24:18;3.88;;;2.22;;
7338;SDS011;33747;49.524;8.390;2022-09-29T13:32:25;4.68;;;1.83;;
7338;SDS011;33747;49.524;8.390;2022-09-29T13:34:54;5.30;;;1.52;;
7338;SDS011;33747;49.524;8.390;2022-09-29T13:37:22;6.03;;;1.95;;
7338;SDS011;33747;49.524;8.390;2022-09-29T13:39:59;5.10;;;2.25;;
7338;SDS011;33747;49.524;8.390;2022-09-29T13:47:54;6.10;;;2.58;;
7338;SDS011;33747;49.524;8.390;2022-09-29T13:56:16;5.38;;;2.40;;
7338;SDS011;33747;49.524;8.390;2022-09-29T14:01:08;13.93;;;3.70;;
7338;SDS011;33747;49.524;8.390;2022-09-29T14:03:35;5.78;;;3.03;;
7338;SDS011;33747;49.524;8.390;2022-09-29T14:06:14;7.97;;;4.95;;
7338;SDS011;33747;49.524;8.390;2022-09-29T14:08:46;7.18;;;4.72;;
7338;SDS011;33747;49.524;8.390;2022-09-29T14:11:20;7.53;;;4.03;;
7338;SDS011;33747;49.524;8.390;2022-09-29T14:13:52;6.97;;;3.95;;
7338;SDS011;33747;49.524;8.390;2022-09-29T14:27:17;7.68;;;4.50;;
7338;SDS011;33747;49.524;8.390;2022-09-29T14:32:44;8.43;;;4.10;;
7338;SDS011;33747;49.524;8.390;2022-09-29T14:35:31;17.80;;;4.13;;
7338;SDS011;33747;49.524;8.390;2022-09-29T14:38:00;10.20;;;4.00;;
7338;SDS011;33747;49.524;8.390;2022-09-29T14:40:27;5.32;;;4.10;;
7338;SDS011;33747;49.524;8.390;2022-09-29T14:43:07;7.35;;;3.55;;
7338;SDS011;33747;49.524;8.390;2022-09-29T14:45:40;11.18;;;3.90;;
7338;SDS011;33747;49.524;8.390;2022-09-29T14:51:54;9.45;;;4.18;;
7338;SDS011;33747;49.524;8.390;2022-09-29T14:54:38;9.85;;;3.20;;
7338;SDS011;33747;49.524;8.390;2022-09-29T15:00:03;7.00;;;3.05;;
7338;SDS011;33747;49.524;8.390;2022-09-29T15:02:36;7.47;;;3.13;;
7338;SDS011;33747;49.524;8.390;2022-09-29T15:05:39;6.80;;;3.35;;
7338;SDS011;33747;49.524;8.390;2022-09-29T15:07:58;8.98;;;3.13;;
7338;SDS011;33747;49.524;8.390;2022-09-29T15:10:26;10.32;;;3.40;;
7338;SDS011;33747;49.524;8.390;2022-09-29T15:13:38;6.15;;;3.50;;
7338;SDS011;33747;49.524;8.390;2022-09-29T15:15:48;12.73;;;3.95;;
7338;SDS011;33747;49.524;8.390;2022-09-29T15:18:21;11.55;;;3.70;;
7338;SDS011;33747;49.524;8.390;2022-09-29T15:21:02;8.02;;;3.78;;
7338;SDS011;33747;49.524;8.390;2022-09-29T15:26:33;7.72;;;3.15;;
7338;SDS011;33747;49.524;8.390;2022-09-29T15:28:59;4.45;;;3.20;;
7338;SDS011;33747;49.524;8.390;2022-09-29T15:31:30;4.82;;;3.17;;
7338;SDS011;33747;49.524;8.390;2022-09-29T15:33:58;5.30;;;3.88;;
7338;SDS011;33747;49.524;8.390;2022-09-29T15:36:24;8.60;;;3.92;;
7338;SDS011;33747;49.524;8.390;2022-09-29T15:38:51;11.02;;;3.92;;
7338;SDS011;33747;49.524;8.390;2022-09-29T15:41:29;5.75;;;3.58;;
7338;SDS011;33747;49.524;8.390;2022-09-29T15:46:48;10.32;;;4.60;;
7338;SDS011;33747;49.524;8.390;2022-09-29T15:49:19;9.68;;;3.40;;
7338;SDS011;33747;49.524;8.390;2022-09-29T15:51:57;5.33;;;3.30;;
7338;SDS011;33747;49.524;8.390;2022-09-29T15:54:32;11.75;;;5.65;;
7338;SDS011;33747;49.524;8.390;2022-09-29T15:57:00;11.90;;;5.80;;
7338;SDS011;33747;49.524;8.390;2022-09-29T15:59:45;14.23;;;6.47;;
7338;SDS011;33747;49.524;8.390;2022-09-29T16:02:28;19.58;;;8.10;;
7338;SDS011;33747;49.524;8.390;2022-09-29T16:05:00;15.65;;;9.13;;
7338;SDS011;33747;49.524;8.390;2022-09-29T16:07:29;16.27;;;7.65;;
7338;SDS011;33747;49.524;8.390;2022-09-29T16:10:00;11.00;;;7.00;;
7338;SDS011;33747;49.524;8.390;2022-09-29T16:12:38;10.80;;;7.07;;
7338;SDS011;33747;49.524;8.390;2022-09-29T16:15:04;15.88;;;7.13;;
7338;SDS011;33747;49.524;8.390;2022-09-29T16:17:30;10.95;;;7.68;;
7338;SDS011;33747;49.524;8.390;2022-09-29T16:19:56;17.60;;;7.78;;
7338;SDS011;33747;49.524;8.390;2022-09-29T16:22:23;12.23;;;7.00;;
7338;SDS011;33747;49.524;8.390;2022-09-29T16:25:10;12.13;;;7.57;;
7338;SDS011;33747;49.524;8.390;2022-09-29T16:30:31;21.27;;;10.88;;
7338;SDS011;33747;49.524;8.390;2022-09-29T16:33:11;10.07;;;6.32;;
7338;SDS011;33747;49.524;8.390;2022-09-29T16:38:17;12.60;;;6.28;;
7338;SDS011;33747;49.524;8.390;2022-09-29T16:40:45;9.63;;;5.07;;
7338;SDS011;33747;49.524;8.390;2022-09-29T16:43:25;11.32;;;4.93;;
7338;SDS011;33747;49.524;8.390;2022-09-29T16:45:54;10.00;;;4.53;;
7338;SDS011;33747;49.524;8.390;2022-09-29T16:48:22;8.50;;;4.25;;
7338;SDS011;33747;49.524;8.390;2022-09-29T16:50:48;8.50;;;5.10;;
7338;SDS011;33747;49.524;8.390;2022-09-29T16:53:23;8.95;;;4.05;;
7338;SDS011;33747;49.524;8.390;2022-09-29T16:55:57;9.68;;;4.18;;
7338;SDS011;33747;49.524;8.390;2022-09-29T16:58:23;6.90;;;4.07;;
7338;SDS011;33747;49.524;8.390;2022-09-29T17:00:48;7.60;;;3.13;;
7338;SDS011;33747;49.524;8.390;2022-09-29T17:03:14;10.38;;;3.03;;
7338;SDS011;33747;49.524;8.390;2022-09-29T17:05:40;15.85;;;4.13;;
7338;SDS011;33747;49.524;8.390;2022-09-29T17:08:32;12.70;;;4.50;;
7338;SDS011;33747;49.524;8.390;2022-09-29T17:10:59;7.75;;;4.65;;
7338;SDS011;33747;49.524;8.390;2022-09-29T17:13:24;10.63;;;5.20;;
7338;SDS011;33747;49.524;8.390;2022-09-29T17:15:58;11.30;;;4.60;;
7338;SDS011;33747;49.524;8.390;2022-09-29T17:18:24;10.48;;;4.85;;
7338;SDS011;33747;49.524;8.390;2022-09-29T17:20:51;13.60;;;5.15;;
7338;SDS011;33747;49.524;8.390;2022-09-29T17:23:16;9.82;;;4.47;;
7338;SDS011;33747;49.524;8.390;2022-09-29T17:25:43;9.13;;;4.93;;
7338;SDS011;33747;49.524;8.390;2022-09-29T17:28:17;10.30;;;5.30;;
7338;SDS011;33747;49.524;8.390;2022-09-29T17:30:44;9.38;;;4.80;;
7338;SDS011;33747;49.524;8.390;2022-09-29T17:33:11;18.90;;;5.53;;
7338;SDS011;33747;49.524;8.390;2022-09-29T17:35:40;6.75;;;4.32;;
7338;SDS011;33747;49.524;8.390;2022-09-29T17:38:09;7.57;;;5.28;;
7338;SDS011;33747;49.524;8.390;2022-09-29T17:43:12;9.82;;;6.78;;
7338;SDS011;33747;49.524;8.390;2022-09-29T17:45:37;7.70;;;4.88;;
7338;SDS011;33747;49.524;8.390;2022-09-29T17:48:06;6.60;;;5.55;;
7338;SDS011;33747;49.524;8.390;2022-09-29T17:50:34;8.98;;;4.82;;
7338;SDS011;33747;49.524;8.390;2022-09-29T17:53:01;6.53;;;3.25;;
7338;SDS011;33747;49.524;8.390;2022-09-29T17:55:28;4.50;;;3.60;;
7338;SDS011;33747;49.524;8.390;2022-09-29T17:57:54;5.85;;;3.90;;
7338;SDS011;33747;49.524;8.390;2022-09-29T18:00:24;5.93;;;3.92;;